Billinghay, United Kingdom
Current Conditions -  °F | °C
As of 4:50 AM on Monday 20 Oct 2014 (Local Time) from EGXC Reporting Station
Few Clouds Few Clouds  
Wind Chill: 11°   Ceiling: Unl
Heat Index: 11°   Visibility: 6mi
Dew Point: 10°   Wind: 8mph
Humidity: 94%   Direction: 230°SW
Pressure: 29.91"   Gusts: NA
Location:  53.08°N, 0.28°W
Report Text: EGXC 200350Z 23007KT 9999 FEW045 11/10 Q1013 BLU
Loading
Personal Weather Stations






























Interactive Weather Map
Tropical Storm Tracking
New forecast layout! Learn more

10-Day Weather Forecast

Advertisements
Track Severe Weather on mobile